sensor_id;sensor_type;location;lat;lon;timestamp;temperature;humidity
12060;DHT22;6091;51.432;6.880;2022-12-07T00:01:42;21.30;34.40
12060;DHT22;6091;51.432;6.880;2022-12-07T00:04:12;21.30;34.40
12060;DHT22;6091;51.432;6.880;2022-12-07T00:06:42;21.30;34.40
12060;DHT22;6091;51.432;6.880;2022-12-07T00:09:14;21.30;34.40
12060;DHT22;6091;51.432;6.880;2022-12-07T00:11:43;21.30;34.50
12060;DHT22;6091;51.432;6.880;2022-12-07T00:14:14;21.30;34.50
12060;DHT22;6091;51.432;6.880;2022-12-07T00:16:43;21.30;34.50
12060;DHT22;6091;51.432;6.880;2022-12-07T00:19:12;21.30;34.50
12060;DHT22;6091;51.432;6.880;2022-12-07T00:21:43;21.30;34.50
12060;DHT22;6091;51.432;6.880;2022-12-07T00:24:11;21.30;34.50
12060;DHT22;6091;51.432;6.880;2022-12-07T00:26:40;21.30;34.50
12060;DHT22;6091;51.432;6.880;2022-12-07T00:29:13;21.20;34.50
12060;DHT22;6091;51.432;6.880;2022-12-07T00:31:42;21.30;34.60
12060;DHT22;6091;51.432;6.880;2022-12-07T00:34:18;21.20;34.50
12060;DHT22;6091;51.432;6.880;2022-12-07T00:36:47;21.30;34.60
12060;DHT22;6091;51.432;6.880;2022-12-07T00:39:15;21.30;34.50
12060;DHT22;6091;51.432;6.880;2022-12-07T00:41:42;21.30;34.60
12060;DHT22;6091;51.432;6.880;2022-12-07T00:44:09;21.20;34.50
12060;DHT22;6091;51.432;6.880;2022-12-07T00:46:36;21.20;34.50
12060;DHT22;6091;51.432;6.880;2022-12-07T00:49:03;21.20;34.50
12060;DHT22;6091;51.432;6.880;2022-12-07T00:51:30;21.20;34.50
12060;DHT22;6091;51.432;6.880;2022-12-07T00:53:57;21.20;34.50
12060;DHT22;6091;51.432;6.880;2022-12-07T00:56:26;21.20;34.50
12060;DHT22;6091;51.432;6.880;2022-12-07T00:58:57;21.20;34.60
12060;DHT22;6091;51.432;6.880;2022-12-07T01:01:29;21.20;34.60
12060;DHT22;6091;51.432;6.880;2022-12-07T01:03:58;21.20;34.60
12060;DHT22;6091;51.432;6.880;2022-12-07T01:06:28;21.10;34.50
12060;DHT22;6091;51.432;6.880;2022-12-07T01:08:56;21.20;34.60
12060;DHT22;6091;51.432;6.880;2022-12-07T01:11:26;21.10;34.50
12060;DHT22;6091;51.432;6.880;2022-12-07T01:13:56;21.20;34.60
12060;DHT22;6091;51.432;6.880;2022-12-07T01:16:27;21.10;34.50
12060;DHT22;6091;51.432;6.880;2022-12-07T01:18:57;21.20;34.60
12060;DHT22;6091;51.432;6.880;2022-12-07T01:21:29;21.10;34.50
12060;DHT22;6091;51.432;6.880;2022-12-07T01:24:04;21.10;34.60
12060;DHT22;6091;51.432;6.880;2022-12-07T01:26:33;21.10;34.60
12060;DHT22;6091;51.432;6.880;2022-12-07T01:29:00;21.10;34.60
12060;DHT22;6091;51.432;6.880;2022-12-07T01:31:28;21.10;34.60
12060;DHT22;6091;51.432;6.880;2022-12-07T01:33:57;21.10;34.60
12060;DHT22;6091;51.432;6.880;2022-12-07T01:36:30;21.10;34.60
12060;DHT22;6091;51.432;6.880;2022-12-07T01:39:00;21.10;34.60
12060;DHT22;6091;51.432;6.880;2022-12-07T01:41:32;21.10;34.60
12060;DHT22;6091;51.432;6.880;2022-12-07T01:47:06;21.10;34.70
12060;DHT22;6091;51.432;6.880;2022-12-07T01:49:46;21.10;34.60
12060;DHT22;6091;51.432;6.880;2022-12-07T01:52:32;21.00;34.60
12060;DHT22;6091;51.432;6.880;2022-12-07T01:55:08;21.10;34.70
12060;DHT22;6091;51.432;6.880;2022-12-07T01:57:40;21.10;34.70
12060;DHT22;6091;51.432;6.880;2022-12-07T02:00:12;21.10;34.70
12060;DHT22;6091;51.432;6.880;2022-12-07T02:02:53;21.00;34.60
12060;DHT22;6091;51.432;6.880;2022-12-07T02:05:24;21.00;34.70
12060;DHT22;6091;51.432;6.880;2022-12-07T02:07:55;21.00;34.60
12060;DHT22;6091;51.432;6.880;2022-12-07T02:10:25;21.00;34.70
12060;DHT22;6091;51.432;6.880;2022-12-07T02:12:58;21.00;34.70
12060;DHT22;6091;51.432;6.880;2022-12-07T02:18:37;21.00;34.70
12060;DHT22;6091;51.432;6.880;2022-12-07T02:24:19;21.00;34.70
12060;DHT22;6091;51.432;6.880;2022-12-07T02:30:09;21.00;34.80
12060;DHT22;6091;51.432;6.880;2022-12-07T02:35:41;21.00;34.70
12060;DHT22;6091;51.432;6.880;2022-12-07T02:38:37;21.00;34.80
12060;DHT22;6091;51.432;6.880;2022-12-07T02:41:12;21.00;34.80
12060;DHT22;6091;51.432;6.880;2022-12-07T02:43:46;21.00;34.80
12060;DHT22;6091;51.432;6.880;2022-12-07T02:46:23;21.00;34.80
12060;DHT22;6091;51.432;6.880;2022-12-07T02:48:55;20.90;34.70
12060;DHT22;6091;51.432;6.880;2022-12-07T02:51:22;21.00;34.80
12060;DHT22;6091;51.432;6.880;2022-12-07T02:53:49;20.90;34.70
12060;DHT22;6091;51.432;6.880;2022-12-07T02:56:39;20.90;34.70
12060;DHT22;6091;51.432;6.880;2022-12-07T02:59:36;20.90;34.80
12060;DHT22;6091;51.432;6.880;2022-12-07T03:02:20;20.90;34.70
12060;DHT22;6091;51.432;6.880;2022-12-07T03:08:14;20.90;34.80
12060;DHT22;6091;51.432;6.880;2022-12-07T03:16:53;20.90;34.80
12060;DHT22;6091;51.432;6.880;2022-12-07T03:19:27;20.90;34.80
12060;DHT22;6091;51.432;6.880;2022-12-07T03:22:01;20.80;34.70
12060;DHT22;6091;51.432;6.880;2022-12-07T03:24:41;20.90;34.80
12060;DHT22;6091;51.432;6.880;2022-12-07T03:27:19;20.90;34.80
12060;DHT22;6091;51.432;6.880;2022-12-07T03:30:08;20.90;34.80
12060;DHT22;6091;51.432;6.880;2022-12-07T03:35:43;20.80;34.70
12060;DHT22;6091;51.432;6.880;2022-12-07T03:38:23;20.80;34.80
12060;DHT22;6091;51.432;6.880;2022-12-07T03:41:16;20.80;34.80
12060;DHT22;6091;51.432;6.880;2022-12-07T03:43:49;20.80;34.80
12060;DHT22;6091;51.432;6.880;2022-12-07T03:54:39;20.80;34.80
12060;DHT22;6091;51.432;6.880;2022-12-07T03:57:12;20.80;35.50
12060;DHT22;6091;51.432;6.880;2022-12-07T03:59:40;20.80;34.80
12060;DHT22;6091;51.432;6.880;2022-12-07T04:02:12;20.70;34.70
12060;DHT22;6091;51.432;6.880;2022-12-07T04:04:41;20.70;34.80
12060;DHT22;6091;51.432;6.880;2022-12-07T04:07:10;20.80;34.90
12060;DHT22;6091;51.432;6.880;2022-12-07T04:09:37;20.70;34.80
12060;DHT22;6091;51.432;6.880;2022-12-07T04:12:04;20.70;34.80
12060;DHT22;6091;51.432;6.880;2022-12-07T04:14:31;20.70;34.80
12060;DHT22;6091;51.432;6.880;2022-12-07T04:16:58;20.70;34.80
12060;DHT22;6091;51.432;6.880;2022-12-07T04:19:31;20.70;34.80
12060;DHT22;6091;51.432;6.880;2022-12-07T04:22:01;20.70;35.50
12060;DHT22;6091;51.432;6.880;2022-12-07T04:24:30;20.70;34.80
12060;DHT22;6091;51.432;6.880;2022-12-07T04:26:57;20.70;34.80
12060;DHT22;6091;51.432;6.880;2022-12-07T04:29:27;20.70;34.80
12060;DHT22;6091;51.432;6.880;2022-12-07T04:31:54;20.70;34.80
12060;DHT22;6091;51.432;6.880;2022-12-07T04:34:21;20.70;34.80
12060;DHT22;6091;51.432;6.880;2022-12-07T04:36:49;20.70;34.80
12060;DHT22;6091;51.432;6.880;2022-12-07T04:39:24;20.70;34.90
12060;DHT22;6091;51.432;6.880;2022-12-07T04:41:53;20.70;35.00
12060;DHT22;6091;51.432;6.880;2022-12-07T04:44:21;20.70;34.90
12060;DHT22;6091;51.432;6.880;2022-12-07T04:46:49;20.70;35.00
12060;DHT22;6091;51.432;6.880;2022-12-07T04:49:17;20.70;34.90
12060;DHT22;6091;51.432;6.880;2022-12-07T04:51:46;20.70;34.90
12060;DHT22;6091;51.432;6.880;2022-12-07T04:54:15;20.70;34.90
12060;DHT22;6091;51.432;6.880;2022-12-07T04:56:42;20.70;35.00
12060;DHT22;6091;51.432;6.880;2022-12-07T04:59:13;20.70;34.90
12060;DHT22;6091;51.432;6.880;2022-12-07T05:01:41;20.60;34.80
12060;DHT22;6091;51.432;6.880;2022-12-07T05:04:08;20.60;34.90
12060;DHT22;6091;51.432;6.880;2022-12-07T05:06:35;20.60;34.90
12060;DHT22;6091;51.432;6.880;2022-12-07T05:09:03;20.60;34.90
12060;DHT22;6091;51.432;6.880;2022-12-07T05:11:33;20.70;35.00
12060;DHT22;6091;51.432;6.880;2022-12-07T05:14:20;20.60;34.90
12060;DHT22;6091;51.432;6.880;2022-12-07T05:16:49;20.60;35.00
12060;DHT22;6091;51.432;6.880;2022-12-07T05:19:17;20.60;34.90
12060;DHT22;6091;51.432;6.880;2022-12-07T05:21:46;20.60;34.90
12060;DHT22;6091;51.432;6.880;2022-12-07T05:24:15;20.60;34.90
12060;DHT22;6091;51.432;6.880;2022-12-07T05:26:43;20.60;35.00
12060;DHT22;6091;51.432;6.880;2022-12-07T05:29:13;20.60;35.00
12060;DHT22;6091;51.432;6.880;2022-12-07T05:31:42;20.60;35.00
12060;DHT22;6091;51.432;6.880;2022-12-07T05:34:09;20.60;35.00
12060;DHT22;6091;51.432;6.880;2022-12-07T05:36:37;20.60;35.00
12060;DHT22;6091;51.432;6.880;2022-12-07T05:39:04;20.60;35.10
12060;DHT22;6091;51.432;6.880;2022-12-07T05:41:31;20.60;35.00
12060;DHT22;6091;51.432;6.880;2022-12-07T05:44:16;20.60;35.00
12060;DHT22;6091;51.432;6.880;2022-12-07T05:46:43;20.60;35.00
12060;DHT22;6091;51.432;6.880;2022-12-07T05:49:10;20.50;34.90
12060;DHT22;6091;51.432;6.880;2022-12-07T05:51:37;20.50;35.00
12060;DHT22;6091;51.432;6.880;2022-12-07T05:54:04;20.50;35.00
12060;DHT22;6091;51.432;6.880;2022-12-07T05:56:31;20.50;35.00
12060;DHT22;6091;51.432;6.880;2022-12-07T05:58:58;20.50;35.00
12060;DHT22;6091;51.432;6.880;2022-12-07T06:01:43;20.50;35.00
12060;DHT22;6091;51.432;6.880;2022-12-07T06:04:10;20.50;35.00
12060;DHT22;6091;51.432;6.880;2022-12-07T06:06:37;20.50;35.00
12060;DHT22;6091;51.432;6.880;2022-12-07T06:09:04;20.50;35.00
12060;DHT22;6091;51.432;6.880;2022-12-07T06:11:31;20.50;35.00
12060;DHT22;6091;51.432;6.880;2022-12-07T06:14:17;20.50;35.00
12060;DHT22;6091;51.432;6.880;2022-12-07T06:16:44;20.50;35.00
12060;DHT22;6091;51.432;6.880;2022-12-07T06:19:11;20.50;35.00
12060;DHT22;6091;51.432;6.880;2022-12-07T06:21:39;20.50;35.00
12060;DHT22;6091;51.432;6.880;2022-12-07T06:24:06;20.50;35.00
12060;DHT22;6091;51.432;6.880;2022-12-07T06:26:33;20.50;35.10
12060;DHT22;6091;51.432;6.880;2022-12-07T06:29:00;20.50;35.00
12060;DHT22;6091;51.432;6.880;2022-12-07T06:31:28;20.50;35.00
12060;DHT22;6091;51.432;6.880;2022-12-07T06:33:59;20.50;35.10
12060;DHT22;6091;51.432;6.880;2022-12-07T06:36:31;20.50;35.10
12060;DHT22;6091;51.432;6.880;2022-12-07T06:38:57;20.50;35.00
12060;DHT22;6091;51.432;6.880;2022-12-07T06:41:25;20.40;35.00
12060;DHT22;6091;51.432;6.880;2022-12-07T06:43:52;20.40;35.10
12060;DHT22;6091;51.432;6.880;2022-12-07T06:46:22;20.50;35.20
12060;DHT22;6091;51.432;6.880;2022-12-07T06:48:49;20.50;35.30
12060;DHT22;6091;51.432;6.880;2022-12-07T06:51:17;20.50;35.30
12060;DHT22;6091;51.432;6.880;2022-12-07T06:53:44;20.50;35.40
12060;DHT22;6091;51.432;6.880;2022-12-07T06:56:11;20.60;35.60
12060;DHT22;6091;51.432;6.880;2022-12-07T06:58:39;20.60;35.60
12060;DHT22;6091;51.432;6.880;2022-12-07T07:01:15;20.70;35.70
12060;DHT22;6091;51.432;6.880;2022-12-07T07:03:45;20.70;35.70
12060;DHT22;6091;51.432;6.880;2022-12-07T07:06:13;20.80;35.70
12060;DHT22;6091;51.432;6.880;2022-12-07T07:08:41;20.90;35.80
12060;DHT22;6091;51.432;6.880;2022-12-07T07:11:09;21.00;35.80
12060;DHT22;6091;51.432;6.880;2022-12-07T07:13:36;21.00;35.80
12060;DHT22;6091;51.432;6.880;2022-12-07T07:16:04;21.10;35.80
12060;DHT22;6091;51.432;6.880;2022-12-07T07:18:32;21.20;35.80
12060;DHT22;6091;51.432;6.880;2022-12-07T07:20:59;21.30;35.90
12060;DHT22;6091;51.432;6.880;2022-12-07T07:23:27;21.30;35.80
12060;DHT22;6091;51.432;6.880;2022-12-07T07:25:54;21.40;35.90
12060;DHT22;6091;51.432;6.880;2022-12-07T07:28:22;21.60;35.90
12060;DHT22;6091;51.432;6.880;2022-12-07T07:30:49;21.60;35.90
12060;DHT22;6091;51.432;6.880;2022-12-07T07:33:17;21.70;36.60
12060;DHT22;6091;51.432;6.880;2022-12-07T07:35:43;21.80;35.90
12060;DHT22;6091;51.432;6.880;2022-12-07T07:38:11;21.90;36.10
12060;DHT22;6091;51.432;6.880;2022-12-07T07:40:37;21.90;36.00
12060;DHT22;6091;51.432;6.880;2022-12-07T07:43:04;22.00;36.10
12060;DHT22;6091;51.432;6.880;2022-12-07T07:45:32;22.10;36.10
12060;DHT22;6091;51.432;6.880;2022-12-07T07:47:58;22.20;36.20
12060;DHT22;6091;51.432;6.880;2022-12-07T07:50:25;22.30;36.20
12060;DHT22;6091;51.432;6.880;2022-12-07T07:52:52;22.30;36.10
12060;DHT22;6091;51.432;6.880;2022-12-07T07:55:22;22.40;36.10
12060;DHT22;6091;51.432;6.880;2022-12-07T07:57:49;22.50;36.00
12060;DHT22;6091;51.432;6.880;2022-12-07T08:00:21;22.50;36.00
12060;DHT22;6091;51.432;6.880;2022-12-07T08:02:51;22.60;36.00
12060;DHT22;6091;51.432;6.880;2022-12-07T08:05:18;22.60;35.90
12060;DHT22;6091;51.432;6.880;2022-12-07T08:07:45;22.70;36.00
12060;DHT22;6091;51.432;6.880;2022-12-07T08:10:15;22.80;36.00
12060;DHT22;6091;51.432;6.880;2022-12-07T08:12:43;24.10;37.00
12060;DHT22;6091;51.432;6.880;2022-12-07T08:15:30;22.90;35.90
12060;DHT22;6091;51.432;6.880;2022-12-07T08:17:58;22.90;35.90
12060;DHT22;6091;51.432;6.880;2022-12-07T08:20:25;23.00;35.80
12060;DHT22;6091;51.432;6.880;2022-12-07T08:22:52;23.00;36.00
12060;DHT22;6091;51.432;6.880;2022-12-07T08:25:20;23.10;35.90
12060;DHT22;6091;51.432;6.880;2022-12-07T08:27:49;23.10;35.90
12060;DHT22;6091;51.432;6.880;2022-12-07T08:30:18;23.10;35.80
12060;DHT22;6091;51.432;6.880;2022-12-07T08:32:46;23.30;35.90
12060;DHT22;6091;51.432;6.880;2022-12-07T08:35:17;23.30;35.90
12060;DHT22;6091;51.432;6.880;2022-12-07T08:37:44;23.30;35.80
12060;DHT22;6091;51.432;6.880;2022-12-07T08:40:12;23.30;35.90
12060;DHT22;6091;51.432;6.880;2022-12-07T08:42:42;23.40;36.00
12060;DHT22;6091;51.432;6.880;2022-12-07T08:45:13;23.40;35.90
12060;DHT22;6091;51.432;6.880;2022-12-07T08:47:48;23.50;36.50
12060;DHT22;6091;51.432;6.880;2022-12-07T08:50:20;23.60;35.90
12060;DHT22;6091;51.432;6.880;2022-12-07T08:52:53;23.60;35.90
12060;DHT22;6091;51.432;6.880;2022-12-07T08:55:23;23.60;35.80
12060;DHT22;6091;51.432;6.880;2022-12-07T08:57:51;23.60;35.90
12060;DHT22;6091;51.432;6.880;2022-12-07T09:00:18;23.70;35.90
12060;DHT22;6091;51.432;6.880;2022-12-07T09:02:46;23.70;35.80
12060;DHT22;6091;51.432;6.880;2022-12-07T09:05:13;23.80;35.90
12060;DHT22;6091;51.432;6.880;2022-12-07T09:07:46;23.80;36.30
12060;DHT22;6091;51.432;6.880;2022-12-07T09:10:17;23.70;35.70
12060;DHT22;6091;51.432;6.880;2022-12-07T09:12:45;23.80;35.90
12060;DHT22;6091;51.432;6.880;2022-12-07T09:15:12;23.80;35.80
12060;DHT22;6091;51.432;6.880;2022-12-07T09:17:39;23.90;35.70
12060;DHT22;6091;51.432;6.880;2022-12-07T09:20:06;24.00;35.80
12060;DHT22;6091;51.432;6.880;2022-12-07T09:22:33;24.00;35.70
12060;DHT22;6091;51.432;6.880;2022-12-07T09:25:03;24.10;35.70
12060;DHT22;6091;51.432;6.880;2022-12-07T09:27:31;24.10;36.00
12060;DHT22;6091;51.432;6.880;2022-12-07T09:29:58;24.10;35.60
12060;DHT22;6091;51.432;6.880;2022-12-07T09:32:26;24.10;35.60
12060;DHT22;6091;51.432;6.880;2022-12-07T09:34:53;24.20;35.70
12060;DHT22;6091;51.432;6.880;2022-12-07T09:37:24;24.20;35.40
12060;DHT22;6091;51.432;6.880;2022-12-07T09:39:54;24.20;35.60
12060;DHT22;6091;51.432;6.880;2022-12-07T09:44:56;24.30;35.50
12060;DHT22;6091;51.432;6.880;2022-12-07T09:47:28;24.30;35.50
12060;DHT22;6091;51.432;6.880;2022-12-07T09:50:06;24.30;35.50
12060;DHT22;6091;51.432;6.880;2022-12-07T09:53:12;24.30;35.40
12060;DHT22;6091;51.432;6.880;2022-12-07T09:56:03;24.40;35.40
12060;DHT22;6091;51.432;6.880;2022-12-07T09:58:32;23.30;34.60
12060;DHT22;6091;51.432;6.880;2022-12-07T10:01:09;24.40;35.40
12060;DHT22;6091;51.432;6.880;2022-12-07T10:03:51;24.40;35.40
12060;DHT22;6091;51.432;6.880;2022-12-07T10:06:19;24.40;35.40
12060;DHT22;6091;51.432;6.880;2022-12-07T10:08:47;24.40;35.40
12060;DHT22;6091;51.432;6.880;2022-12-07T10:11:14;24.40;35.40
12060;DHT22;6091;51.432;6.880;2022-12-07T10:13:51;24.50;35.50
12060;DHT22;6091;51.432;6.880;2022-12-07T10:18:51;24.50;35.60
12060;DHT22;6091;51.432;6.880;2022-12-07T10:21:24;24.60;35.70
12060;DHT22;6091;51.432;6.880;2022-12-07T10:29:30;24.90;35.60
12060;DHT22;6091;51.432;6.880;2022-12-07T10:32:30;24.90;35.20
12060;DHT22;6091;51.432;6.880;2022-12-07T10:37:58;25.00;35.00
12060;DHT22;6091;51.432;6.880;2022-12-07T10:40:33;25.00;35.20
12060;DHT22;6091;51.432;6.880;2022-12-07T10:49:48;25.20;34.80
12060;DHT22;6091;51.432;6.880;2022-12-07T10:55:24;25.20;34.70
12060;DHT22;6091;51.432;6.880;2022-12-07T11:15:14;25.10;34.60
12060;DHT22;6091;51.432;6.880;2022-12-07T11:17:52;25.10;34.50
12060;DHT22;6091;51.432;6.880;2022-12-07T11:20:39;25.00;34.50
12060;DHT22;6091;51.432;6.880;2022-12-07T11:23:31;25.00;34.50
12060;DHT22;6091;51.432;6.880;2022-12-07T11:38:42;24.90;34.50
12060;DHT22;6091;51.432;6.880;2022-12-07T11:41:20;24.90;35.10
12060;DHT22;6091;51.432;6.880;2022-12-07T11:44:22;24.80;34.40
12060;DHT22;6091;51.432;6.880;2022-12-07T11:47:16;24.80;34.40
12060;DHT22;6091;51.432;6.880;2022-12-07T11:50:01;24.80;34.40
12060;DHT22;6091;51.432;6.880;2022-12-07T11:53:01;24.80;34.50
12060;DHT22;6091;51.432;6.880;2022-12-07T11:59:15;24.70;34.60
12060;DHT22;6091;51.432;6.880;2022-12-07T12:02:02;24.70;34.70
12060;DHT22;6091;51.432;6.880;2022-12-07T12:04:58;24.70;34.60
12060;DHT22;6091;51.432;6.880;2022-12-07T12:07:35;24.80;33.90
12060;DHT22;6091;51.432;6.880;2022-12-07T12:10:59;24.90;33.90
12060;DHT22;6091;51.432;6.880;2022-12-07T12:26:23;24.80;34.20
12060;DHT22;6091;51.432;6.880;2022-12-07T12:28:58;24.80;34.30
12060;DHT22;6091;51.432;6.880;2022-12-07T12:34:00;24.70;34.30
12060;DHT22;6091;51.432;6.880;2022-12-07T12:39:18;24.70;34.40
12060;DHT22;6091;51.432;6.880;2022-12-07T12:44:39;24.70;34.50
12060;DHT22;6091;51.432;6.880;2022-12-07T12:47:43;24.80;34.50
12060;DHT22;6091;51.432;6.880;2022-12-07T12:50:37;24.80;34.50
12060;DHT22;6091;51.432;6.880;2022-12-07T12:53:15;24.60;34.80
12060;DHT22;6091;51.432;6.880;2022-12-07T12:56:20;24.70;34.90
12060;DHT22;6091;51.432;6.880;2022-12-07T13:02:06;24.80;35.10
12060;DHT22;6091;51.432;6.880;2022-12-07T13:15:46;24.90;34.50
12060;DHT22;6091;51.432;6.880;2022-12-07T13:18:40;24.90;34.50
12060;DHT22;6091;51.432;6.880;2022-12-07T13:29:09;25.00;35.30
12060;DHT22;6091;51.432;6.880;2022-12-07T13:34:33;24.90;34.80
12060;DHT22;6091;51.432;6.880;2022-12-07T13:39:51;25.00;34.80
12060;DHT22;6091;51.432;6.880;2022-12-07T13:42:32;25.00;34.80
12060;DHT22;6091;51.432;6.880;2022-12-07T13:50:55;25.00;34.50
12060;DHT22;6091;51.432;6.880;2022-12-07T13:53:23;25.00;34.40
12060;DHT22;6091;51.432;6.880;2022-12-07T13:55:58;25.00;34.50
12060;DHT22;6091;51.432;6.880;2022-12-07T13:58:30;25.00;34.40
12060;DHT22;6091;51.432;6.880;2022-12-07T14:00:59;25.00;34.40
12060;DHT22;6091;51.432;6.880;2022-12-07T14:03:30;25.00;34.40
12060;DHT22;6091;51.432;6.880;2022-12-07T14:06:25;25.00;34.40
12060;DHT22;6091;51.432;6.880;2022-12-07T14:09:17;25.00;34.30
12060;DHT22;6091;51.432;6.880;2022-12-07T14:11:48;25.00;34.30
12060;DHT22;6091;51.432;6.880;2022-12-07T14:14:29;25.00;34.40
12060;DHT22;6091;51.432;6.880;2022-12-07T14:17:19;25.00;34.30
12060;DHT22;6091;51.432;6.880;2022-12-07T14:20:03;25.00;34.30
12060;DHT22;6091;51.432;6.880;2022-12-07T14:22:33;25.00;34.40
12060;DHT22;6091;51.432;6.880;2022-12-07T14:27:50;25.00;34.50
12060;DHT22;6091;51.432;6.880;2022-12-07T14:30:19;25.00;34.50
12060;DHT22;6091;51.432;6.880;2022-12-07T14:32:51;25.00;34.50
12060;DHT22;6091;51.432;6.880;2022-12-07T14:35:20;25.00;34.50
12060;DHT22;6091;51.432;6.880;2022-12-07T14:37:48;25.00;34.60
12060;DHT22;6091;51.432;6.880;2022-12-07T14:40:25;25.00;34.60
12060;DHT22;6091;51.432;6.880;2022-12-07T14:43:00;25.00;34.50
12060;DHT22;6091;51.432;6.880;2022-12-07T14:45:29;25.00;34.50
12060;DHT22;6091;51.432;6.880;2022-12-07T14:47:56;24.90;34.40
12060;DHT22;6091;51.432;6.880;2022-12-07T14:50:50;24.90;34.40
12060;DHT22;6091;51.432;6.880;2022-12-07T14:53:42;25.00;34.50
12060;DHT22;6091;51.432;6.880;2022-12-07T14:56:18;25.00;34.40
12060;DHT22;6091;51.432;6.880;2022-12-07T14:58:45;24.90;34.40
12060;DHT22;6091;51.432;6.880;2022-12-07T15:01:17;24.90;34.40
12060;DHT22;6091;51.432;6.880;2022-12-07T15:03:44;24.90;34.40
12060;DHT22;6091;51.432;6.880;2022-12-07T15:06:14;24.90;34.40
12060;DHT22;6091;51.432;6.880;2022-12-07T15:08:45;24.90;34.40
12060;DHT22;6091;51.432;6.880;2022-12-07T15:11:17;24.90;34.40
12060;DHT22;6091;51.432;6.880;2022-12-07T15:13:45;24.90;34.40
12060;DHT22;6091;51.432;6.880;2022-12-07T15:16:31;24.60;34.10
12060;DHT22;6091;51.432;6.880;2022-12-07T15:19:20;24.80;34.30
12060;DHT22;6091;51.432;6.880;2022-12-07T15:21:56;24.80;34.30
12060;DHT22;6091;51.432;6.880;2022-12-07T15:24:25;24.80;34.30
12060;DHT22;6091;51.432;6.880;2022-12-07T15:26:52;24.80;34.30
12060;DHT22;6091;51.432;6.880;2022-12-07T15:29:20;24.80;34.30
12060;DHT22;6091;51.432;6.880;2022-12-07T15:31:52;24.80;34.40
12060;DHT22;6091;51.432;6.880;2022-12-07T15:34:27;24.70;34.30
12060;DHT22;6091;51.432;6.880;2022-12-07T15:37:05;24.80;34.40
12060;DHT22;6091;51.432;6.880;2022-12-07T15:39:32;24.70;34.30
12060;DHT22;6091;51.432;6.880;2022-12-07T15:41:59;24.70;34.30
12060;DHT22;6091;51.432;6.880;2022-12-07T15:44:26;24.70;34.30
12060;DHT22;6091;51.432;6.880;2022-12-07T15:47:12;24.70;34.30
12060;DHT22;6091;51.432;6.880;2022-12-07T15:49:38;24.70;34.30
12060;DHT22;6091;51.432;6.880;2022-12-07T15:52:05;24.70;34.30
12060;DHT22;6091;51.432;6.880;2022-12-07T15:54:32;24.70;34.30
12060;DHT22;6091;51.432;6.880;2022-12-07T15:56:59;24.70;34.30
12060;DHT22;6091;51.432;6.880;2022-12-07T15:59:28;24.70;34.30
12060;DHT22;6091;51.432;6.880;2022-12-07T16:01:55;24.70;34.30
12060;DHT22;6091;51.432;6.880;2022-12-07T16:04:23;24.70;34.40
12060;DHT22;6091;51.432;6.880;2022-12-07T16:06:50;24.70;34.30
12060;DHT22;6091;51.432;6.880;2022-12-07T16:09:18;24.70;34.30
12060;DHT22;6091;51.432;6.880;2022-12-07T16:11:45;24.70;34.20
12060;DHT22;6091;51.432;6.880;2022-12-07T16:14:13;24.70;34.20
12060;DHT22;6091;51.432;6.880;2022-12-07T16:16:40;24.70;34.10
12060;DHT22;6091;51.432;6.880;2022-12-07T16:19:08;24.70;34.10
12060;DHT22;6091;51.432;6.880;2022-12-07T16:21:39;24.70;34.70
12060;DHT22;6091;51.432;6.880;2022-12-07T16:24:07;24.70;34.00
12060;DHT22;6091;51.432;6.880;2022-12-07T16:26:36;24.70;34.00
12060;DHT22;6091;51.432;6.880;2022-12-07T16:29:03;24.70;34.00
12060;DHT22;6091;51.432;6.880;2022-12-07T16:31:31;24.70;33.90
12060;DHT22;6091;51.432;6.880;2022-12-07T16:33:58;24.70;33.90
12060;DHT22;6091;51.432;6.880;2022-12-07T16:36:25;24.80;34.00
12060;DHT22;6091;51.432;6.880;2022-12-07T16:39:14;24.70;34.00
12060;DHT22;6091;51.432;6.880;2022-12-07T16:41:41;24.70;33.90
12060;DHT22;6091;51.432;6.880;2022-12-07T16:44:11;24.70;33.90
12060;DHT22;6091;51.432;6.880;2022-12-07T16:46:40;24.70;33.90
12060;DHT22;6091;51.432;6.880;2022-12-07T16:49:11;24.70;34.00
12060;DHT22;6091;51.432;6.880;2022-12-07T16:51:40;24.70;34.00
12060;DHT22;6091;51.432;6.880;2022-12-07T16:54:12;24.70;34.00
12060;DHT22;6091;51.432;6.880;2022-12-07T16:56:39;24.70;34.00
12060;DHT22;6091;51.432;6.880;2022-12-07T16:59:07;24.70;34.00
12060;DHT22;6091;51.432;6.880;2022-12-07T17:01:34;24.80;34.10
12060;DHT22;6091;51.432;6.880;2022-12-07T17:04:02;24.80;34.00
12060;DHT22;6091;51.432;6.880;2022-12-07T17:06:31;24.70;34.00
12060;DHT22;6091;51.432;6.880;2022-12-07T17:08:59;24.70;34.10
12060;DHT22;6091;51.432;6.880;2022-12-07T17:11:29;24.70;34.00
12060;DHT22;6091;51.432;6.880;2022-12-07T17:13:59;24.70;34.00
12060;DHT22;6091;51.432;6.880;2022-12-07T17:16:45;24.70;34.00
12060;DHT22;6091;51.432;6.880;2022-12-07T17:19:15;24.80;34.10
12060;DHT22;6091;51.432;6.880;2022-12-07T17:21:47;24.70;34.10
12060;DHT22;6091;51.432;6.880;2022-12-07T17:24:17;24.80;34.20
12060;DHT22;6091;51.432;6.880;2022-12-07T17:26:45;24.80;34.10
12060;DHT22;6091;51.432;6.880;2022-12-07T17:29:14;24.70;34.10
12060;DHT22;6091;51.432;6.880;2022-12-07T17:31:43;24.80;34.20
12060;DHT22;6091;51.432;6.880;2022-12-07T17:34:17;24.80;34.10
12060;DHT22;6091;51.432;6.880;2022-12-07T17:36:44;24.70;34.10
12060;DHT22;6091;51.432;6.880;2022-12-07T17:39:15;24.80;34.10
12060;DHT22;6091;51.432;6.880;2022-12-07T17:41:44;24.70;34.10
12060;DHT22;6091;51.432;6.880;2022-12-07T17:44:30;24.70;34.00
12060;DHT22;6091;51.432;6.880;2022-12-07T17:46:57;24.70;34.00
12060;DHT22;6091;51.432;6.880;2022-12-07T17:49:25;24.70;34.10
12060;DHT22;6091;51.432;6.880;2022-12-07T17:51:55;24.70;34.00
12060;DHT22;6091;51.432;6.880;2022-12-07T17:54:41;24.60;33.90
12060;DHT22;6091;51.432;6.880;2022-12-07T17:57:08;24.60;33.90
12060;DHT22;6091;51.432;6.880;2022-12-07T17:59:35;24.50;33.80
12060;DHT22;6091;51.432;6.880;2022-12-07T18:02:02;24.50;33.80
12060;DHT22;6091;51.432;6.880;2022-12-07T18:04:30;24.50;33.90
12060;DHT22;6091;51.432;6.880;2022-12-07T18:06:57;24.40;33.80
12060;DHT22;6091;51.432;6.880;2022-12-07T18:09:26;24.40;33.80
12060;DHT22;6091;51.432;6.880;2022-12-07T18:11:53;24.30;33.90
12060;DHT22;6091;51.432;6.880;2022-12-07T18:14:20;24.30;33.80
12060;DHT22;6091;51.432;6.880;2022-12-07T18:16:47;24.20;33.70
12060;DHT22;6091;51.432;6.880;2022-12-07T18:19:15;24.20;33.80
12060;DHT22;6091;51.432;6.880;2022-12-07T18:21:43;24.10;33.80
12060;DHT22;6091;51.432;6.880;2022-12-07T18:24:12;24.10;33.80
12060;DHT22;6091;51.432;6.880;2022-12-07T18:26:41;24.10;33.90
12060;DHT22;6091;51.432;6.880;2022-12-07T18:29:13;23.90;34.60
12060;DHT22;6091;51.432;6.880;2022-12-07T18:31:42;23.80;34.40
12060;DHT22;6091;51.432;6.880;2022-12-07T18:34:15;23.80;34.30
12060;DHT22;6091;51.432;6.880;2022-12-07T18:36:46;23.80;34.30
12060;DHT22;6091;51.432;6.880;2022-12-07T18:39:17;23.80;34.20
12060;DHT22;6091;51.432;6.880;2022-12-07T18:41:45;23.70;34.00
12060;DHT22;6091;51.432;6.880;2022-12-07T18:44:12;23.70;34.00
12060;DHT22;6091;51.432;6.880;2022-12-07T18:46:40;23.70;34.00